^^
Station Historical Data
Daily Summary for June 15, 2018 Units:  English    Metric   Both
« Previous Day
Next Day »
Daily Weekly Monthly Yearly Custom
  High: Low: Average:
Temperature: TemperatureF °F 49.5 °F 58.4 °F
Dew Point: DewpointF °F 48.7 °F 56.8 °F
Humidity: Humidity% 79% 94%
Wind Speed: WindSpeedMPHmph 0.0mph 1.5mph
Wind Gust: WindSpeedGustMPHmph - -
Wind- - SSW
Pressure: PressureIn in 29.88 in -
Precipitation: 1.16 in    
Historical Graphs
 
 
Tabular Data for June 15, 2018
Time Temperature Dew Point Pressure Wind Wind Speed Wind Gust Humidity Rainfall Rate (Hourly) solar Conditions
TemperatureF °F DewpointF °F PressureIn in Calm     Humidity% HourlyPrecipIn in SolarRadiationWatts/m^2 W/m2 Conditions
00:04 54.0 °F 50.5 °F 30.06 in Calm     88% 0.00 in 0.00 W/m2 CLR
00:09 53.4 °F 50.0 °F 30.05 in Calm     88% 0.00 in 0.00 W/m2 CLR
00:14 53.4 °F 50.0 °F 30.05 in Calm     88% 0.00 in 0.00 W/m2 CLR
00:19 53.2 °F 50.7 °F 30.05 in Calm     91% 0.00 in 0.00 W/m2 CLR
00:24 53.2 °F 50.4 °F 30.05 in Calm     90% 0.00 in 0.00 W/m2 CLR
00:29 53.2 °F 50.7 °F 30.05 in Calm     91% 0.00 in 0.00 W/m2 CLR
00:34 52.9 °F 50.3 °F 30.06 in Calm     91% 0.00 in 0.00 W/m2 CLR
00:39 52.9 °F 50.3 °F 30.05 in Calm     91% 0.00 in 0.00 W/m2 CLR
00:44 53.1 °F 50.5 °F 30.06 in Calm     91% 0.00 in 0.00 W/m2 CLR
00:49 52.9 °F 50.3 °F 30.05 in Calm     91% 0.00 in 0.00 W/m2 CLR
00:54 52.5 °F 50.0 °F 30.06 in Calm     91% 0.00 in 0.00 W/m2 CLR
00:59 52.5 °F 50.0 °F 30.05 in Calm     91% 0.00 in 0.00 W/m2 CLR
01:04 52.3 °F 50.4 °F 30.06 in Calm     93% 0.00 in 0.00 W/m2 CLR
01:09 52.3 °F 50.4 °F 30.06 in Calm     93% 0.00 in 0.00 W/m2 CLR
01:14 52.2 °F 49.6 °F 30.06 in Calm     91% 0.00 in 0.00 W/m2 CLR
01:19 52.0 °F 49.4 °F 30.06 in Calm     91% 0.00 in 0.00 W/m2 CLR
01:24 52.0 °F 49.4 °F 30.08 in Calm     91% 0.00 in 0.00 W/m2 CLR
01:29 51.8 °F 49.3 °F 30.08 in Calm     91% 0.00 in 0.00 W/m2 CLR
01:34 51.4 °F 48.9 °F 30.08 in Calm     91% 0.00 in 0.00 W/m2 CLR
01:39 51.3 °F 49.3 °F 30.08 in Calm     93% 0.00 in 0.00 W/m2 CLR
01:44 51.1 °F 49.7 °F 30.08 in Calm     95% 0.00 in 0.00 W/m2 CLR
01:49 51.3 °F 49.9 °F 30.06 in Calm     95% 0.00 in 0.00 W/m2 CLR
01:54 50.9 °F 49.5 °F 30.06 in Calm     95% 0.00 in 0.00 W/m2 CLR
01:59 51.1 °F 50.0 °F 30.06 in Calm     96% 0.00 in 0.00 W/m2 CLR
02:04 51.3 °F 49.9 °F 30.06 in Calm     95% 0.00 in 0.00 W/m2 FEW
02:09 51.3 °F 49.3 °F 30.06 in Calm     93% 0.00 in 0.00 W/m2 FEW
02:14 51.1 °F 49.7 °F 30.07 in Calm     95% 0.00 in 0.00 W/m2 FEW
02:19 51.1 °F 49.1 °F 30.07 in Calm     93% 0.00 in 0.00 W/m2 FEW
02:24 50.7 °F 49.3 °F 30.08 in Calm     95% 0.00 in 0.00 W/m2 FEW
02:29 50.7 °F 49.3 °F 30.07 in Calm     95% 0.00 in 0.00 W/m2 FEW
02:34 50.5 °F 49.4 °F 30.08 in Calm     96% 0.00 in 0.00 W/m2 FEW
02:39 50.4 °F 49.3 °F 30.07 in Calm     96% 0.00 in 0.00 W/m2 FEW
02:44 50.4 °F 49.3 °F 30.07 in Calm     96% 0.00 in 0.00 W/m2 FEW
02:49 50.4 °F 49.3 °F 30.07 in Calm     96% 0.00 in 0.00 W/m2 FEW
02:54 50.4 °F 49.3 °F 30.08 in Calm     96% 0.00 in 0.00 W/m2 FEW
02:59 50.2 °F 49.1 °F 30.07 in Calm     96% 0.00 in 0.00 W/m2 FEW
03:04 50.0 °F 48.9 °F 30.08 in Calm     96% 0.00 in 0.00 W/m2 FEW
03:09 50.0 °F 48.9 °F 30.08 in Calm     96% 0.00 in 0.00 W/m2 FEW
03:14 50.0 °F 48.9 °F 30.08 in Calm     96% 0.00 in 0.00 W/m2 FEW
03:19 49.8 °F 48.7 °F 30.08 in Calm     96% 0.00 in 0.00 W/m2 CLR
03:24 49.5 °F 48.9 °F 30.07 in Calm     98% 0.00 in 0.00 W/m2 CLR
03:29 49.5 °F 48.9 °F 30.07 in Calm     98% 0.00 in 0.00 W/m2 CLR
03:34 49.5 °F 48.9 °F 30.06 in Calm     98% 0.00 in 0.00 W/m2 CLR
03:39 49.5 °F 48.9 °F 30.06 in Calm     98% 0.00 in 0.00 W/m2 CLR
03:44 49.8 °F 49.3 °F 30.06 in Calm     98% 0.00 in 0.00 W/m2 CLR
03:49 49.8 °F 49.3 °F 30.06 in Calm     98% 0.00 in 0.00 W/m2 CLR
03:54 49.8 °F 49.3 °F 30.06 in Calm     98% 0.00 in 0.00 W/m2 CLR
03:59 49.8 °F 49.3 °F 30.08 in Calm     98% 0.00 in 0.00 W/m2 CLR
04:04 49.8 °F 49.3 °F 30.08 in Calm     98% 0.00 in 0.00 W/m2 CLR
04:09 49.8 °F 49.3 °F 30.08 in Calm     98% 0.00 in 0.00 W/m2 CLR
04:14 49.8 °F 49.3 °F 30.08 in Calm     98% 0.00 in 0.00 W/m2 CLR
04:19 49.8 °F 49.3 °F 30.08 in Calm     98% 0.00 in 0.00 W/m2 CLR
04:24 50.0 °F 49.5 °F 30.08 in Calm     98% 0.00 in 0.00 W/m2 CLR
04:29 50.4 °F 49.8 °F 30.09 in Calm     98% 0.00 in 0.00 W/m2 CLR
04:34 50.4 °F 49.8 °F 30.08 in Calm     98% 0.00 in 0.00 W/m2 CLR
04:39 50.5 °F 50.0 °F 30.08 in Calm     98% 0.00 in 0.00 W/m2 CLR
04:44 50.5 °F 50.0 °F 30.08 in Calm     98% 0.00 in 0.00 W/m2 CLR
04:49 50.9 °F 50.4 °F 30.07 in Calm     98% 0.00 in 0.00 W/m2 CLR
04:54 51.1 °F 50.5 °F 30.06 in Calm     98% 0.00 in 0.00 W/m2 CLR
04:59 50.9 °F 50.4 °F 30.06 in Calm     98% 0.00 in 115.80 W/m2 CLR
05:04 50.9 °F 50.4 °F 30.06 in Calm     98% 0.00 in 151.20 W/m2 CLR
05:09 50.9 °F 50.4 °F 30.05 in Calm     98% 0.00 in 164.30 W/m2 CLR
05:14 50.9 °F 50.4 °F 30.06 in Calm     98% 0.00 in 186.50 W/m2 CLR
05:19 51.1 °F 50.5 °F 30.06 in Calm     98% 0.00 in 200.70 W/m2 CLR
05:24 50.9 °F 50.4 °F 30.06 in Calm     98% 0.00 in 207.80 W/m2 CLR
05:29 51.1 °F 50.5 °F 30.06 in Calm     98% 0.00 in 207.80 W/m2 CLR
05:34 51.1 °F 50.5 °F 30.06 in Calm     98% 0.00 in 208.80 W/m2 CLR
05:39 51.4 °F 50.9 °F 30.05 in Calm     98% 0.00 in 211.80 W/m2 CLR
05:44 52.2 °F 51.1 °F 30.05 in Calm     96% 0.00 in 231.00 W/m2 CLR
05:49 52.2 °F 51.1 °F 30.05 in Calm     96% 0.00 in 248.20 W/m2 CLR
05:54 52.2 °F 51.6 °F 30.04 in Calm     98% 0.00 in 254.20 W/m2 CLR
05:59 52.5 °F 51.4 °F 30.04 in Calm     96% 0.00 in 264.30 W/m2 CLR
06:04 52.9 °F 51.8 °F 30.04 in Calm     96% 0.00 in 275.40 W/m2 OVC
06:09 53.8 °F 52.7 °F 30.03 in Calm     96% 0.00 in 287.50 W/m2 OVC
06:14 54.7 °F 52.7 °F 30.03 in Calm     93% 0.00 in 287.50 W/m2 OVC
06:19 55.0 °F 53.1 °F 30.04 in Calm     93% 0.00 in 287.50 W/m2 OVC
06:24 55.6 °F 53.6 °F 30.05 in Calm     93% 0.00 in 296.60 W/m2 OVC
06:29 55.9 °F 53.4 °F 30.05 in Calm     91% 0.00 in 299.70 W/m2 OVC
06:34 56.5 °F 53.9 °F 30.06 in Calm     91% 0.00 in 301.70 W/m2 OVC
06:39 56.7 °F 53.8 °F 30.06 in Calm     90% 0.00 in 300.70 W/m2 OVC
06:44 57.4 °F 53.9 °F 30.06 in South 1.2 mph 0.2 mph 88% 0.00 in 309.80 W/m2 OVC
06:49 57.7 °F 53.6 °F 30.04 in Calm   0.2 mph 86% 0.00 in 314.80 W/m2 OVC
06:54 57.9 °F 53.4 °F 30.04 in WNW 1.2 mph 0.2 mph 85% 0.00 in 314.80 W/m2 OVC
06:59 57.9 °F 53.4 °F 30.05 in West 1.2 mph   85% 0.00 in 308.80 W/m2 OVC
07:04 57.9 °F 53.4 °F 30.06 in Calm     85% 0.00 in 303.70 W/m2 CLR
07:09 58.3 °F 53.1 °F 30.06 in WNW 1.2 mph 0.2 mph 83% 0.00 in 298.70 W/m2 CLR
07:14 58.3 °F 53.1 °F 30.06 in NNE 1.2 mph 0.4 mph 83% 0.00 in 298.70 W/m2 CLR
07:19 58.5 °F 52.6 °F 30.06 in SSW 1.2 mph 0.4 mph 81% 0.00 in 298.70 W/m2 CLR
07:24 58.5 °F 52.6 °F 30.06 in WNW 2.0 mph 0.4 mph 81% 0.00 in 290.60 W/m2 CLR
07:29 58.8 °F 53.0 °F 30.06 in WSW 1.2 mph 1.1 mph 81% 0.00 in 288.60 W/m2 CLR
07:34 58.8 °F 52.7 °F 30.07 in Calm   0.4 mph 80% 0.00 in 288.60 W/m2 CLR
07:39 59.0 °F 52.8 °F 30.09 in West 2.3 mph 1.1 mph 80% 0.00 in 280.50 W/m2 CLR
07:44 59.2 °F 52.7 °F 30.09 in South 2.3 mph 0.9 mph 79% 0.00 in 280.50 W/m2 CLR
07:49 59.2 °F 52.7 °F 30.09 in Calm   0.4 mph 79% 0.00 in 279.50 W/m2 CLR
07:54 59.4 °F 53.2 °F 30.08 in Calm     80% 0.00 in 290.60 W/m2 CLR
07:59 59.4 °F 53.2 °F 30.07 in Calm   0.2 mph 80% 0.00 in 289.60 W/m2 CLR
08:04 59.4 °F 53.2 °F 30.08 in Calm   0.2 mph 80% 0.00 in 288.60 W/m2 BKN
08:09 59.4 °F 53.5 °F 30.07 in Calm     81% 0.00 in 290.60 W/m2 BKN
08:14 59.4 °F 53.5 °F 30.06 in Calm     81% 0.00 in 293.60 W/m2 BKN
08:19 59.4 °F 54.2 °F 30.04 in East 2.0 mph 0.4 mph 83% 0.00 in 280.50 W/m2 BKN
08:24 59.4 °F 54.2 °F 30.05 in West 1.2 mph 0.4 mph 83% 0.00 in 257.20 W/m2 BKN
08:29 59.2 °F 54.0 °F 30.05 in Calm     83% 0.00 in 257.20 W/m2 BKN
08:34 59.2 °F 54.0 °F 30.03 in Calm     83% 0.00 in 264.30 W/m2 -RA
08:39 59.2 °F 54.0 °F 30.03 in WNW 2.9 mph 0.4 mph 83% 0.00 in 274.40 W/m2 -RA
08:44 59.0 °F 53.8 °F 30.04 in Calm   0.9 mph 83% 0.00 in 276.40 W/m2 -RA
08:49 59.0 °F 53.8 °F 30.04 in SE 2.3 mph 0.4 mph 83% 0.00 in 278.40 W/m2 -RA
08:54 59.0 °F 53.8 °F 30.05 in ENE 1.2 mph 0.2 mph 83% 0.00 in 279.50 W/m2 -RA
08:59 59.0 °F 53.8 °F 30.05 in Calm   0.2 mph 83% 0.00 in 320.00 W/m2 -RA
09:04 59.2 °F 54.0 °F 30.07 in Calm     83% 0.00 in 290.60 W/m2 -RA
09:09 59.4 °F 55.2 °F 30.07 in Calm     86% 0.00 in 300.70 W/m2 -RA
09:14 59.4 °F 54.8 °F 30.07 in Calm     85% 0.00 in 300.70 W/m2 -RA
09:19 59.4 °F 54.8 °F 30.07 in Calm     85% 0.00 in 317.80 W/m2 -RA
09:24 59.9 °F 55.4 °F 30.08 in Calm     85% 0.00 in 326.90 W/m2 -RA
09:29 60.1 °F 55.6 °F 30.08 in Calm     85% 0.00 in 328.90 W/m2 -RA
09:34 60.1 °F 55.6 °F 30.09 in Calm   0.2 mph 85% 0.00 in 316.80 W/m2 OVC
09:39 60.1 °F 55.9 °F 30.09 in Calm     86% 0.00 in 316.80 W/m2 OVC
09:44 59.9 °F 55.7 °F 30.09 in Calm     86% 0.00 in 328.90 W/m2 OVC
09:49 59.7 °F 56.2 °F 30.09 in Calm     88% 0.00 in 277.40 W/m2 -RA
09:54 59.4 °F 55.8 °F 30.11 in Calm     88% 0.00 in 277.40 W/m2 -RA
09:59 59.4 °F 55.8 °F 30.09 in Calm     88% 0.00 in 265.30 W/m2 -RA
10:04 59.2 °F 56.2 °F 30.09 in Calm     90% 0.00 in 262.30 W/m2 -RA
10:09 58.8 °F 56.8 °F 30.09 in Calm     93% 0.00 in 264.30 W/m2 -RA
10:14 58.5 °F 57.0 °F 30.09 in Calm     95% 0.01 in 264.30 W/m2 -RA
10:19 57.9 °F 56.8 °F 30.11 in Calm     96% 0.02 in 262.30 W/m2 -RA
10:24 57.7 °F 56.6 °F 30.09 in Calm     96% 0.04 in 262.30 W/m2 -RA
10:29 57.6 °F 57.0 °F 30.09 in Calm     98% 0.06 in 246.10 W/m2 -RA
10:34 57.4 °F 56.8 °F 30.11 in Calm     98% 0.08 in 240.10 W/m2 RA
10:39 57.2 °F 56.6 °F 30.11 in Calm     98% 0.10 in 237.00 W/m2 RA
10:44 56.8 °F 56.3 °F 30.11 in Calm     98% 0.13 in 237.00 W/m2 RA
10:49 56.7 °F 56.1 °F 30.11 in Calm     98% 0.14 in 236.00 W/m2 RA
10:54 56.5 °F 55.9 °F 30.11 in NE 0.9 mph 0.4 mph 98% 0.18 in 236.00 W/m2 RA
10:59 56.5 °F 55.9 °F 30.14 in North 2.9 mph 0.4 mph 98% 0.20 in 234.00 W/m2 RA
11:04 56.3 °F 55.7 °F 30.14 in West 2.3 mph 1.6 mph 98% 0.22 in 233.00 W/m2 RA
11:09 55.9 °F 55.4 °F 30.16 in West 3.5 mph 2.2 mph 98% 0.23 in 230.00 W/m2 RA
11:14 55.9 °F 55.4 °F 30.16 in West 2.0 mph 0.7 mph 98% 0.23 in 230.00 W/m2 RA
11:19 55.9 °F 55.4 °F 30.18 in NNW 1.2 mph 0.9 mph 98% 0.24 in 232.00 W/m2 RA
11:24 55.9 °F 55.4 °F 30.18 in West 2.3 mph 0.4 mph 98% 0.23 in 232.00 W/m2 RA
11:29 55.9 °F 55.4 °F 30.19 in Calm   0.4 mph 98% 0.23 in 231.00 W/m2 RA
11:34 55.9 °F 55.4 °F 30.19 in WSW 1.2 mph 0.7 mph 98% 0.23 in 232.00 W/m2 RA
11:39 55.9 °F 55.4 °F 30.19 in NW 2.9 mph 0.9 mph 98% 0.22 in 234.00 W/m2 RA
11:44 55.9 °F 55.4 °F 30.19 in WNW 0.9 mph 0.7 mph 98% 0.23 in 241.10 W/m2 RA
11:49 55.9 °F 55.4 °F 30.19 in Calm   0.2 mph 98% 0.22 in 242.10 W/m2 RA
11:54 55.8 °F 55.2 °F 30.19 in Calm     98% 0.24 in 243.10 W/m2 RA
11:59 55.8 °F 55.2 °F 30.19 in Calm     98% 0.24 in 244.10 W/m2 RA
12:04 55.8 °F 55.2 °F 30.19 in Calm     98% 0.24 in 243.10 W/m2 RA
12:09 55.9 °F 55.4 °F 30.19 in Calm     98% 0.26 in 246.10 W/m2 RA
12:14 55.9 °F 55.4 °F 30.19 in Calm     98% 0.27 in 246.10 W/m2 RA
12:19 55.9 °F 55.4 °F 30.19 in Calm     98% 0.29 in 254.20 W/m2 RA
12:24 55.9 °F 55.4 °F 30.19 in Calm     98% 0.31 in 257.20 W/m2 RA
12:29 55.9 °F 55.4 °F 30.19 in SE 0.9 mph 0.2 mph 98% 0.32 in 263.30 W/m2 RA
12:32 55.9 °F 55.4 °F 30.19 in SE 1.2 mph 0.2 mph 98% 0.32 in 1143.00 W/m2 RA
12:54 55.8 °F 55.2 °F 30.14 in Calm   0.2 mph 98% 0.32 in 280.50 W/m2 RA
12:59 55.8 °F 55.2 °F 30.13 in Calm   0.9 mph 98% 0.32 in 280.50 W/m2 RA
13:04 55.8 °F 55.2 °F 30.08 in Calm   0.7 mph 98% 0.31 in 290.60 W/m2 RA
13:09 55.8 °F 55.2 °F 30.05 in ESE 4.0 mph 2.7 mph 98% 0.33 in 294.60 W/m2 RA
13:14 55.8 °F 55.2 °F 30.02 in SSE 3.5 mph 2.7 mph 98% 0.31 in 294.60 W/m2 RA
13:19 55.9 °F 55.4 °F 30.04 in South 3.5 mph 1.8 mph 98% 0.29 in 308.80 W/m2 RA
13:24 55.9 °F 55.4 °F 30.06 in West 0.9 mph 0.7 mph 98% 0.26 in 312.80 W/m2 RA
13:29 55.9 °F 55.4 °F 30.13 in West 4.6 mph 3.1 mph 98% 0.22 in 307.70 W/m2 OVC
13:34 56.3 °F 55.7 °F 30.07 in SE 4.6 mph 3.4 mph 98% 0.20 in 316.80 W/m2 OVC
13:39 56.5 °F 55.9 °F 30.06 in WSW 3.5 mph 1.6 mph 98% 0.16 in 316.80 W/m2 OVC
13:44 56.7 °F 56.1 °F 30.07 in SW 2.3 mph 2.2 mph 98% 0.14 in 321.90 W/m2 OVC
13:49 56.7 °F 56.1 °F 30.05 in North 2.0 mph 0.9 mph 98% 0.11 in 333.00 W/m2 RA
13:54 56.7 °F 56.1 °F 30.04 in Calm     98% 0.10 in 322.90 W/m2 RA
13:59 56.8 °F 56.3 °F 30.05 in West 2.3 mph 0.9 mph 98% 0.08 in 312.80 W/m2 OVC
14:04 56.8 °F 56.3 °F 30.04 in WNW 1.2 mph 0.9 mph 98% 0.06 in 0.00 W/m2 -RA
14:09 56.8 °F 56.3 °F 29.99 in East 3.5 mph 1.1 mph 98% 0.02 in 309.80 W/m2 -RA
14:14 56.8 °F 56.3 °F 30.00 in NW 5.8 mph 2.9 mph 98% 0.02 in 309.80 W/m2 -RA
14:19 57.2 °F 56.6 °F 30.01 in South 1.2 mph 1.8 mph 98% 0.02 in 313.80 W/m2 OVC
14:24 57.4 °F 56.8 °F 30.01 in South 3.5 mph 1.8 mph 98% 0.01 in 339.10 W/m2 OVC
14:29 57.9 °F 57.4 °F 30.00 in SW 3.5 mph 1.6 mph 98% 0.01 in 362.30 W/m2 OVC
14:34 58.3 °F 57.7 °F 30.00 in West 4.0 mph 1.1 mph 98% 0.01 in 421.90 W/m2 OVC
14:39 59.0 °F 58.4 °F 30.00 in SSW 4.0 mph 2.7 mph 98% 0.01 in 661.20 W/m2 OVC
14:44 59.9 °F 59.3 °F 30.00 in SE 2.3 mph 1.8 mph 98% 0.01 in 813.80 W/m2 OVC
14:49 59.9 °F 59.3 °F 30.00 in SE 1.2 mph 1.8 mph 98% 0.00 in 835.00 W/m2 OVC
14:54 61.2 °F 60.6 °F 29.99 in WNW 4.6 mph 2.9 mph 98% 0.00 in 859.20 W/m2 OVC
14:59 61.7 °F 61.1 °F 29.99 in North 4.0 mph 2.7 mph 98% 0.00 in 0.00 W/m2 OVC
15:04 61.9 °F 61.3 °F 29.98 in WNW 6.0 mph 3.8 mph 98% 0.00 in 855.20 W/m2 SCT
15:09 62.1 °F 61.5 °F 29.98 in NW 4.6 mph 3.4 mph 98% 0.00 in 0.00 W/m2 SCT
15:14 62.2 °F 61.7 °F 29.98 in West 3.5 mph 2.2 mph 98% 0.00 in 847.10 W/m2 SCT
15:19 62.4 °F 61.8 °F 29.98 in WSW 5.8 mph 3.8 mph 98% 0.00 in 838.00 W/m2 SCT
15:24 62.4 °F 61.8 °F 29.97 in WSW 5.8 mph 3.6 mph 98% 0.00 in 830.90 W/m2 SCT
15:29 62.4 °F 61.8 °F 29.97 in SSW 6.9 mph 4.5 mph 98% 0.00 in 821.80 W/m2 SCT
15:34 62.4 °F 61.8 °F 29.95 in NE 3.5 mph 3.6 mph 98% 0.00 in 816.80 W/m2 SCT
15:39 63.3 °F 62.7 °F 29.95 in South 3.5 mph 1.6 mph 98% 0.00 in 0.00 W/m2 SCT
15:44 63.9 °F 63.3 °F 29.95 in SW 5.8 mph 3.1 mph 98% 0.00 in 812.70 W/m2 SCT
15:49 64.9 °F 63.8 °F 29.94 in SW 11.5 mph 3.1 mph 96% 0.00 in 835.00 W/m2 SCT
15:54 65.5 °F 64.9 °F 29.95 in West 4.9 mph 3.1 mph 98% 0.00 in 854.20 W/m2 SCT
15:59 65.7 °F 64.5 °F 29.93 in West 4.6 mph 2.9 mph 96% 0.00 in 856.20 W/m2 SCT
16:04 65.8 °F 64.7 °F 29.93 in SW 4.6 mph 2.9 mph 96% 0.00 in 860.20 W/m2 CLR
16:09 66.0 °F 64.8 °F 29.93 in SSW 4.0 mph 3.1 mph 96% 0.00 in 851.10 W/m2 CLR
16:14 65.8 °F 64.7 °F 29.93 in SW 2.3 mph 3.6 mph 96% 0.00 in 851.10 W/m2 CLR
16:19 65.8 °F 64.7 °F 29.92 in NW 4.0 mph 2.5 mph 96% 0.01 in 809.70 W/m2 RA
16:24 66.0 °F 64.8 °F 29.92 in SW 3.5 mph 4.0 mph 96% 0.01 in 798.60 W/m2 RA
16:29 66.6 °F 65.4 °F 29.92 in WSW 6.0 mph 3.1 mph 96% 0.01 in 789.50 W/m2 CLR
16:34 67.1 °F 65.6 °F 29.91 in ESE 8.1 mph 4.7 mph 95% 0.01 in 808.70 W/m2 CLR
16:39 67.3 °F 65.2 °F 29.91 in SSW 8.1 mph 6.0 mph 93% 0.01 in 840.00 W/m2 CLR
16:44 66.9 °F 64.8 °F 29.92 in SW 6.9 mph 4.7 mph 93% 0.01 in 832.90 W/m2 CLR
16:49 66.9 °F 64.8 °F 29.92 in WSW 5.8 mph 5.4 mph 93% 0.01 in 802.60 W/m2 CLR
16:54 67.1 °F 65.6 °F 29.93 in WNW 6.9 mph 5.8 mph 95% 0.01 in 786.50 W/m2 CLR
16:59 67.1 °F 65.6 °F 29.97 in WNW 5.8 mph 4.9 mph 95% 0.01 in 564.30 W/m2 CLR
17:04 66.6 °F 65.4 °F 29.97 in ESE 3.5 mph 3.8 mph 96% 0.01 in 451.20 W/m2 CLR
17:09 66.6 °F 65.4 °F 29.95 in South 2.3 mph 0.9 mph 96% 0.01 in 412.80 W/m2 CLR
17:14 67.3 °F 65.8 °F 29.96 in SW 4.9 mph 3.6 mph 95% 0.01 in 412.80 W/m2 CLR
17:19 67.5 °F 65.4 °F 29.96 in SSW 5.8 mph 2.2 mph 93% 0.00 in 0.00 W/m2 SCT
17:24 67.6 °F 64.9 °F 29.94 in West 3.5 mph 2.2 mph 91% 0.00 in 459.20 W/m2 SCT
17:29 67.6 °F 65.5 °F 29.95 in West 1.2 mph 1.3 mph 93% 0.00 in 439.00 W/m2 SCT
17:34 67.5 °F 65.4 °F 29.94 in South 2.3 mph 0.9 mph 93% 0.00 in 423.90 W/m2 BKN
17:39 67.3 °F 65.2 °F 29.93 in SE 3.5 mph 0.9 mph 93% 0.00 in 407.70 W/m2 BKN
17:44 67.3 °F 65.2 °F 29.93 in NNW 3.5 mph 1.6 mph 93% 0.00 in 406.70 W/m2 BKN
17:49 67.1 °F 65.6 °F 29.93 in South 3.5 mph 2.5 mph 95% 0.00 in 412.80 W/m2 -RA
17:54 67.1 °F 65.0 °F 29.94 in West 2.3 mph 1.3 mph 93% 0.00 in 398.60 W/m2 -RA
17:59 67.6 °F 65.5 °F 29.99 in SW 6.0 mph 5.1 mph 93% 0.00 in 369.30 W/m2 -RA
18:04 67.1 °F 65.0 °F 29.99 in WSW 3.5 mph 3.4 mph 93% 0.00 in 350.20 W/m2 BKN
18:09 67.1 °F 65.0 °F 29.99 in NNW 9.2 mph 4.5 mph 93% 0.00 in 350.20 W/m2 BKN
18:14 67.1 °F 65.0 °F 29.99 in West 3.5 mph 3.4 mph 93% 0.00 in 288.60 W/m2 BKN
18:19 67.1 °F 64.4 °F 30.01 in NNE 4.6 mph 4.2 mph 91% 0.00 in 297.60 W/m2 BKN
18:24 67.1 °F 64.4 °F 30.01 in SW 1.2 mph 3.6 mph 91% 0.00 in 256.20 W/m2 BKN
18:29 66.6 °F 65.4 °F 30.02 in WNW 9.2 mph 3.6 mph 96% 0.02 in 230.00 W/m2 RA
18:34 66.4 °F 65.2 °F 30.01 in WNW 4.0 mph 2.0 mph 96% 0.03 in 218.90 W/m2 RA
18:39 65.7 °F 65.1 °F 30.00 in ESE 3.5 mph 2.2 mph 98% 0.04 in 219.90 W/m2 RA
18:44 65.5 °F 64.9 °F 29.99 in WSW 3.5 mph 0.7 mph 98% 0.04 in 220.90 W/m2 RA
18:49 65.1 °F 64.5 °F 30.00 in SW 3.5 mph 1.3 mph 98% 0.05 in 222.90 W/m2 RA
18:54 64.9 °F 64.4 °F 30.00 in WNW 3.5 mph 2.5 mph 98% 0.15 in 178.50 W/m2 RA
18:59 64.8 °F 64.2 °F 30.00 in South 3.5 mph 1.1 mph 98% 0.27 in 176.40 W/m2 RA
19:04 64.8 °F 64.2 °F 30.00 in SW 1.2 mph 0.9 mph 98% 0.33 in 180.50 W/m2 RA
19:09 64.8 °F 64.2 °F 30.00 in SSW 2.3 mph 1.1 mph 98% 0.33 in 188.60 W/m2 RA
19:14 64.6 °F 64.0 °F 30.00 in West 2.9 mph 1.6 mph 98% 0.35 in 192.60 W/m2 RA
19:19 64.6 °F 64.0 °F 30.00 in NNW 2.3 mph 1.8 mph 98% 0.36 in 193.60 W/m2 RA
19:24 64.6 °F 64.0 °F 30.00 in SW 4.6 mph 3.6 mph 98% 0.37 in 191.60 W/m2 RA
19:29 64.4 °F 63.8 °F 30.00 in WSW 2.3 mph 1.8 mph 98% 0.37 in 184.50 W/m2 RA
19:34 64.4 °F 63.8 °F 29.99 in WSW 2.3 mph 0.4 mph 98% 0.37 in 184.50 W/m2 RA
19:39 64.0 °F 63.5 °F 29.99 in West 2.3 mph 0.9 mph 98% 0.35 in 171.40 W/m2 RA
19:44 64.0 °F 63.5 °F 29.99 in Calm   0.4 mph 98% 0.35 in 177.40 W/m2 BKN
19:49 63.9 °F 63.3 °F 29.98 in Calm     98% 0.36 in 179.50 W/m2 RA
19:54 63.9 °F 63.3 °F 29.97 in ESE 2.3 mph 0.9 mph 98% 0.25 in 183.50 W/m2 RA
19:59 63.9 °F 63.3 °F 29.95 in Calm     98% 0.17 in 185.50 W/m2 OVC
20:04 63.9 °F 63.3 °F 29.94 in Calm     98% 0.11 in 190.60 W/m2 -RA
20:09 63.9 °F 63.3 °F 29.92 in ESE 4.0 mph 1.3 mph 98% 0.07 in 189.60 W/m2 -RA
20:14 63.9 °F 63.3 °F 29.89 in West 3.5 mph 1.1 mph 98% 0.06 in 189.60 W/m2 -RA
20:19 63.7 °F 63.1 °F 29.89 in East 2.3 mph 0.7 mph 98% 0.05 in 152.20 W/m2 -RA
20:24 63.7 °F 63.1 °F 29.90 in NNE 2.3 mph 1.3 mph 98% 0.05 in 143.10 W/m2 -RA
20:29 63.7 °F 63.1 °F 29.92 in West 3.5 mph 1.8 mph 98% 0.04 in 138.10 W/m2 -RA
20:34 63.7 °F 63.1 °F 29.91 in WNW 1.2 mph 0.9 mph 98% 0.04 in 122.90 W/m2 -RA
20:39 63.3 °F 62.7 °F 29.90 in ESE 3.5 mph 1.6 mph 98% 0.03 in 122.90 W/m2 -RA
20:44 63.3 °F 62.7 °F 29.91 in West 2.3 mph 1.1 mph 98% 0.03 in 0.00 W/m2 -RA
20:49 63.3 °F 62.7 °F 29.90 in SSE 3.5 mph 1.8 mph 98% 0.02 in 0.00 W/m2 -RA
20:54 63.3 °F 62.7 °F 29.88 in WNW 2.3 mph 1.6 mph 98% 0.03 in 0.00 W/m2 -RA
20:59 63.3 °F 62.7 °F 29.88 in NNE 2.9 mph 1.1 mph 98% 0.03 in 0.00 W/m2 -RA
21:04 63.3 °F 62.7 °F 29.88 in NW 2.3 mph 1.8 mph 98% 0.03 in 0.00 W/m2 FEW
21:09 63.3 °F 62.7 °F 29.89 in NE 1.2 mph 1.6 mph 98% 0.03 in 0.00 W/m2 FEW
21:14 63.1 °F 62.6 °F 29.88 in ENE 2.9 mph 1.8 mph 98% 0.03 in 0.00 W/m2 FEW
21:19 63.1 °F 62.6 °F 29.92 in NW 2.3 mph 1.8 mph 98% 0.03 in 0.00 W/m2 RA
21:24 63.1 °F 62.6 °F 29.91 in ESE 3.5 mph 1.3 mph 98% 0.03 in 0.00 W/m2 RA
21:29 63.1 °F 62.6 °F 29.94 in Calm   0.2 mph 98% 0.03 in 0.00 W/m2 FEW
21:34 63.1 °F 62.6 °F 29.97 in West 3.5 mph 0.7 mph 98% 0.03 in 0.00 W/m2 BKN
21:39 63.1 °F 62.6 °F 29.96 in SSE 1.2 mph 0.9 mph 98% 0.02 in 0.00 W/m2 BKN
21:44 63.1 °F 62.6 °F 29.96 in West 2.0 mph 0.9 mph 98% 0.02 in 0.00 W/m2 BKN
21:49 63.1 °F 62.6 °F 29.97 in NE 1.2 mph 0.9 mph 98% 0.02 in 0.00 W/m2 BKN
21:54 63.1 °F 62.6 °F 29.99 in Calm     98% 0.01 in 0.00 W/m2 BKN
21:59 63.1 °F 62.6 °F 30.00 in Calm     98% 0.01 in 0.00 W/m2 BKN
22:04 63.1 °F 62.6 °F 30.00 in Calm     98% 0.01 in 0.00 W/m2 BKN
22:09 63.1 °F 62.6 °F 29.99 in Calm     98% 0.01 in 0.00 W/m2 BKN
22:14 63.1 °F 62.6 °F 29.99 in Calm     98% 0.01 in 0.00 W/m2 BKN
22:19 63.1 °F 62.6 °F 30.00 in Calm     98% 0.00 in 0.00 W/m2 BKN
22:24 63.1 °F 62.6 °F 29.99 in Calm     98% 0.00 in 0.00 W/m2 BKN
22:29 63.1 °F 62.6 °F 29.99 in Calm     98% 0.00 in 0.00 W/m2 BKN
22:34 63.1 °F 62.6 °F 29.99 in Calm     98% 0.00 in 0.00 W/m2 BKN
22:39 63.1 °F 62.6 °F 29.99 in Calm     98% 0.00 in 0.00 W/m2 BKN
22:44 63.1 °F 62.6 °F 30.00 in Calm     98% 0.00 in 0.00 W/m2 BKN
22:49 63.1 °F 62.6 °F 29.99 in Calm     98% 0.00 in 0.00 W/m2 BKN
22:54 63.1 °F 62.6 °F 30.00 in Calm     98% 0.00 in 0.00 W/m2 BKN
22:59 63.1 °F 62.6 °F 29.99 in SE 2.3 mph 1.1 mph 98% 0.00 in 0.00 W/m2 BKN
23:04 63.1 °F 62.6 °F 29.99 in Calm   0.2 mph 98% 0.00 in 0.00 W/m2 OVC
23:09 63.1 °F 62.6 °F 29.99 in Calm     98% 0.00 in 0.00 W/m2 OVC
23:14 63.1 °F 62.6 °F 29.99 in Calm     98% 0.00 in 0.00 W/m2 OVC
23:19 63.1 °F 62.6 °F 29.99 in South 1.2 mph   98% 0.00 in 0.00 W/m2 OVC
23:24 63.1 °F 62.6 °F 29.98 in Calm   0.2 mph 98% 0.00 in 0.00 W/m2 OVC
23:29 63.1 °F 62.6 °F 29.98 in Calm   0.4 mph 98% 0.00 in 0.00 W/m2 OVC
23:34 63.1 °F 62.6 °F 29.98 in WNW 0.9 mph 0.2 mph 98% 0.00 in 0.00 W/m2 OVC
23:39 63.0 °F 62.4 °F 29.98 in ESE 3.5 mph 1.1 mph 98% 0.00 in 0.00 W/m2 OVC
23:44 63.0 °F 62.4 °F 29.98 in Calm   0.7 mph 98% 0.00 in 0.00 W/m2 OVC
23:49 63.0 °F 62.4 °F 29.97 in Calm     98% 0.00 in 0.00 W/m2 OVC
23:54 63.0 °F 62.4 °F 29.97 in Calm     98% 0.00 in 0.00 W/m2 OVC
23:59 63.0 °F 62.4 °F 29.97 in Calm     98% 0.00 in 0.00 W/m2 OVC
Juneau County Weather
Compliments of Weather Underground - 5.75 mb